Time;durP1;ratioP1;P1;durP2;ratioP2;P2;SDS_P1;SDS_P2;PMS_P1;PMS_P2;Temp;Humidity;BMP_temperature;BMP_pressure;BME280_temperature;BME280_humidity;BME280_pressure;Samples;Min_cycle;Max_cycle;Signal;HPM_P1;HPM_P2
2021/03/19 00:00:07;;;;;;;14.00;7.78;;;;;;;9.29;49.75;100062.50;1782433;80;21121;-79
2021/03/19 00:02:38;;;;;;;13.85;7.45;;;;;;;9.15;50.15;100063.93;1784183;80;21035;-76
2021/03/19 00:05:10;;;;;;;13.08;7.37;;;;;;;9.33;49.90;100053.17;1750773;81;21499;-76
2021/03/19 00:07:52;;;;;;;11.70;7.10;;;;;;;9.20;50.19;100056.77;1783465;80;21066;-77
2021/03/19 00:10:30;;;;;;;9.48;7.03;;;;;;;9.15;50.34;100056.75;1747756;82;21159;-79
2021/03/19 00:13:02;;;;;;;10.30;7.47;;;;;;;9.15;50.46;100047.90;1782320;80;21121;-78
2021/03/19 00:15:30;;;;;;;12.07;6.87;;;;;;;9.12;50.47;100050.37;1746433;82;21653;-79
2021/03/19 00:17:58;;;;;;;12.23;7.00;;;;;;;9.18;50.42;100050.27;1715387;82;21151;-77
2021/03/19 00:20:28;;;;;;;10.18;6.62;;;;;;;9.32;50.24;100045.65;1781418;80;21146;-77
2021/03/19 00:22:59;;;;;;;10.48;6.83;;;;;;;9.42;50.07;100044.19;1715643;82;21166;-74
2021/03/19 00:25:28;;;;;;;11.10;6.70;;;;;;;9.41;50.18;100043.86;1750384;80;21051;-78
2021/03/19 00:27:55;;;;;;;9.83;7.25;;;;;;;9.32;50.50;100046.16;1782087;80;21106;-80
2021/03/19 00:30:23;;;;;;;11.25;6.67;;;;;;;9.30;50.60;100044.13;1782024;80;21113;-78
2021/03/19 00:32:50;;;;;;;8.43;6.72;;;;;;;9.31;50.58;100047.13;1747239;82;21162;-80
2021/03/19 00:35:18;;;;;;;9.05;6.22;;;;;;;9.32;50.58;100045.65;1749503;80;21481;-77
2021/03/19 00:37:45;;;;;;;13.72;7.20;;;;;;;9.32;50.59;100043.48;1781658;80;21125;-80
2021/03/19 00:40:14;;;;;;;11.28;7.03;;;;;;;9.30;50.63;100046.80;1782082;80;21129;-80
2021/03/19 00:42:42;;;;;;;10.72;7.35;;;;;;;9.47;50.36;100045.88;1782090;80;21153;-77
2021/03/19 00:45:13;;;;;;;11.20;7.17;;;;;;;9.46;50.24;100048.72;1781952;80;21142;-79
2021/03/19 00:47:42;;;;;;;9.10;6.58;;;;;;;9.55;50.02;100043.73;1745887;82;21216;-80
2021/03/19 00:50:15;;;;;;;10.03;6.90;;;;;;;9.31;50.49;100049.33;1781948;80;21126;-78
2021/03/19 00:52:43;;;;;;;9.95;6.90;;;;;;;9.34;50.49;100046.31;1782425;79;21577;-79
2021/03/19 00:55:13;;;;;;;9.30;6.30;;;;;;;9.33;50.57;100057.17;1790139;78;21217;-83
2021/03/19 00:57:41;;;;;;;7.95;6.03;;;;;;;9.35;50.58;100052.49;1764316;81;21445;-77
2021/03/19 01:00:11;;;;;;;10.28;7.00;;;;;;;9.22;50.94;100051.63;1785360;80;21196;-80
2021/03/19 01:02:40;;;;;;;9.43;6.90;;;;;;;9.56;50.30;100052.09;1764522;79;21229;-80
2021/03/19 01:05:16;;;;;;;10.45;6.87;;;;;;;9.28;50.83;100052.31;1797808;79;21189;-77
2021/03/19 01:07:59;;;;;;;8.95;6.33;;;;;;;9.19;51.15;100055.11;1759274;80;22289;-76
2021/03/19 01:10:31;;;;;;;9.43;6.28;;;;;;;9.12;51.26;100056.22;1733965;81;21194;-77
2021/03/19 01:12:58;;;;;;;9.13;5.92;;;;;;;9.11;51.31;100056.72;1768879;81;21173;-79
2021/03/19 01:15:27;;;;;;;12.98;7.35;;;;;;;9.12;51.32;100058.89;1768892;81;21152;-76
2021/03/19 01:17:54;;;;;;;9.88;6.25;;;;;;;9.12;51.34;100056.22;1768909;81;21205;-81
2021/03/19 01:20:23;;;;;;;8.08;6.00;;;;;;;9.12;51.33;100060.23;1739071;81;21165;-78
2021/03/19 01:22:51;;;;;;;10.75;6.58;;;;;;;9.39;50.81;100056.53;1768849;81;21557;-78
2021/03/19 01:25:19;;;;;;;9.53;6.08;;;;;;;9.49;50.50;100055.89;1738445;82;21132;-79
2021/03/19 01:27:48;;;;;;;7.53;5.45;;;;;;;9.48;50.46;100058.23;1761699;81;21133;-77
2021/03/19 01:30:19;;;;;;;7.37;6.00;;;;;;;9.44;50.61;100065.40;1741417;81;21585;-79
2021/03/19 01:32:48;;;;;;;10.20;7.20;;;;;;;9.45;50.65;100061.72;1741193;81;21141;-77
2021/03/19 01:35:16;;;;;;;8.93;6.67;;;;;;;9.25;51.12;100071.33;1768801;81;21209;-78
2021/03/19 01:37:44;;;;;;;10.70;6.90;;;;;;;9.15;51.42;100072.78;1768752;81;21177;-77
2021/03/19 01:40:13;;;;;;;;;;;;;;;9.13;51.43;100081.47;1771540;81;21081;-81
2021/03/19 01:42:50;;;;;;;9.18;6.37;;;;;;;9.13;51.49;100071.28;1768922;81;20493;-79
2021/03/19 01:46:14;;;;;;;9.78;6.75;;;;;;;9.48;50.69;100075.61;1741628;81;21065;-81
2021/03/19 01:49:38;;;;;;;8.40;6.03;;;;;;;9.45;50.68;100073.28;1768800;81;21081;-76
2021/03/19 01:53:03;;;;;;;10.28;7.20;;;;;;;9.48;50.62;100073.44;1741689;81;21179;-77
2021/03/19 01:56:28;;;;;;;8.63;6.28;;;;;;;9.42;50.71;100078.94;1705446;84;21184;-77
2021/03/19 01:59:52;;;;;;;8.20;5.80;;;;;;;9.20;51.16;100083.50;1706900;84;21651;-83
2021/03/19 02:03:15;;;;;;;8.43;5.72;;;;;;;9.36;50.94;100080.42;1729068;81;21127;-80
2021/03/19 02:06:40;;;;;;;8.63;6.60;;;;;;;9.30;51.20;100077.53;1731660;82;21239;-78
2021/03/19 02:10:03;;;;;;;9.45;5.90;;;;;;;9.33;51.15;100075.38;1731871;82;21163;-79
2021/03/19 02:13:26;;;;;;;8.43;6.35;;;;;;;9.42;50.94;100081.61;1731730;82;21163;-80
2021/03/19 02:16:50;;;;;;;9.08;6.10;;;;;;;9.19;51.39;100081.83;1731759;82;21175;-79
2021/03/19 02:20:13;;;;;;;10.15;5.67;;;;;;;9.09;51.57;100088.63;1731111;82;21599;-77
2021/03/19 02:23:37;;;;;;;8.03;5.87;;;;;;;9.11;51.60;100092.80;1730169;82;21171;-79
2021/03/19 02:27:00;;;;;;;10.20;6.70;;;;;;;9.11;51.59;100092.80;1706892;84;21230;-78
2021/03/19 02:30:23;;;;;;;11.12;5.45;;;;;;;9.11;51.56;100094.13;1707061;84;21176;-78
2021/03/19 02:32:51;;;;;;;7.45;5.10;;;;;;;9.08;51.63;100091.80;1707127;84;21602;-80
2021/03/19 02:35:22;;;;;;;8.13;5.58;;;;;;;9.04;51.82;100092.27;1705663;84;21166;-80
2021/03/19 02:37:49;;;;;;;7.83;5.55;;;;;;;9.05;51.88;100090.77;1729626;83;21100;-78
2021/03/19 02:40:21;;;;;;;7.78;5.67;;;;;;;9.08;51.91;100096.27;1679624;84;21193;-80
2021/03/19 02:42:49;;;;;;;8.25;5.45;;;;;;;9.09;51.98;100097.47;1707158;84;21688;-78
2021/03/19 02:45:20;;;;;;;7.30;5.80;;;;;;;9.11;51.91;100095.47;1707088;84;21117;-79
2021/03/19 02:47:48;;;;;;;7.58;5.78;;;;;;;9.13;51.85;100101.50;1706962;84;21193;-79
2021/03/19 02:50:16;;;;;;;6.92;5.37;;;;;;;9.13;51.83;100098.84;1707184;84;21674;-77
2021/03/19 02:52:43;;;;;;;7.53;5.72;;;;;;;9.12;51.83;100098.47;1728329;82;21221;-77
2021/03/19 02:55:14;;;;;;;7.28;5.53;;;;;;;9.12;51.77;100100.31;1760620;81;21201;-78
2021/03/19 02:57:42;;;;;;;7.10;5.92;;;;;;;9.10;51.78;100100.47;1768079;81;21188;-78
2021/03/19 03:00:14;;;;;;;7.10;5.53;;;;;;;9.07;51.83;100102.61;1738116;81;21145;-79
2021/03/19 03:02:41;;;;;;;6.95;5.20;;;;;;;9.06;51.90;100103.62;1767950;81;21157;-76
2021/03/19 03:05:11;;;;;;;6.62;5.37;;;;;;;9.06;51.92;100099.11;1738106;81;21081;-79
2021/03/19 03:07:38;;;;;;;11.28;5.80;;;;;;;9.09;51.93;100101.98;1767747;81;21100;-78
2021/03/19 03:10:08;;;;;;;7.62;5.60;;;;;;;9.09;51.89;100103.31;1761107;81;21655;-77
2021/03/19 03:12:36;;;;;;;7.05;5.70;;;;;;;9.08;51.93;100103.81;1738325;82;21608;-77
2021/03/19 03:15:09;;;;;;;6.67;5.20;;;;;;;9.09;51.91;100104.15;1762666;81;21137;-78
2021/03/19 03:17:36;;;;;;;7.05;5.40;;;;;;;9.11;51.89;100105.31;1763858;81;21145;-76
2021/03/19 03:20:07;;;;;;;9.18;5.60;;;;;;;9.17;51.68;100103.84;1761893;81;21591;-78
2021/03/19 03:22:36;;;;;;;7.47;4.87;;;;;;;9.15;51.68;100104.84;1743619;81;21169;-79
2021/03/19 03:25:08;;;;;;;6.90;5.25;;;;;;;9.13;51.67;100100.67;1706445;84;21181;-78
2021/03/19 03:27:35;;;;;;;7.65;5.12;;;;;;;9.09;51.71;100102.81;1707815;84;21176;-78
2021/03/19 03:30:07;;;;;;;6.53;5.05;;;;;;;9.06;51.82;100104.45;1737245;82;21095;-79
2021/03/19 03:32:35;;;;;;;7.58;5.85;;;;;;;9.05;51.83;100105.45;1707277;82;21166;-77
2021/03/19 03:35:06;;;;;;;7.50;5.53;;;;;;;9.04;51.87;100107.80;1737290;81;21144;-81
2021/03/19 03:37:33;;;;;;;8.85;5.35;;;;;;;9.18;51.68;100106.88;1737186;82;21198;-81
2021/03/19 03:40:01;;;;;;;5.53;5.00;;;;;;;9.22;51.55;100109.55;1737528;82;21120;-81
2021/03/19 03:42:28;;;;;;;6.85;4.95;;;;;;;9.23;51.51;100112.09;1737451;82;21162;-78
2021/03/19 03:44:55;;;;;;;;;;;;;;;9.24;51.48;100114.25;1710646;82;21163;-78
2021/03/19 03:47:22;;;;;;;7.30;5.37;;;;;;;9.24;51.49;100112.92;1736796;82;20297;-81
2021/03/19 03:49:49;;;;;;;7.45;5.85;;;;;;;9.23;51.40;100117.93;1708331;82;21609;-79
2021/03/19 03:52:18;;;;;;;7.42;5.85;;;;;;;9.21;51.46;100122.58;1735791;81;21776;-78
2021/03/19 03:54:45;;;;;;;8.40;6.10;;;;;;;9.24;51.39;100127.61;1736256;82;21589;-75
2021/03/19 03:57:12;;;;;;;7.35;5.85;;;;;;;9.24;51.40;100128.95;1736331;82;21174;-78
2021/03/19 03:59:40;;;;;;;7.12;6.28;;;;;;;9.23;51.35;100129.95;1736501;82;21094;-77
2021/03/19 04:02:20;;;;;;;;;;;;;;;9.22;51.34;100133.59;1739161;82;21614;-78
2021/03/19 04:04:49;;;;;;;11.28;6.50;;;;;;;9.19;51.35;100130.77;1735773;82;20302;-78
2021/03/19 04:07:16;;;;;;;7.03;6.28;;;;;;;9.15;51.46;100134.23;1736501;82;21151;-78
2021/03/19 04:09:43;;;;;;;;;;;;;;;9.14;51.46;100136.58;1739005;82;21194;-78
2021/03/19 04:12:11;;;;;;;9.93;6.53;;;;;;;9.15;51.43;100136.91;1736523;82;20468;-77
2021/03/19 04:14:39;;;;;;;7.75;6.12;;;;;;;9.13;51.50;100137.58;1736443;82;21131;-78
2021/03/19 04:17:13;;;;;;;7.70;6.15;;;;;;;9.12;51.51;100137.71;1736479;82;21143;-78
2021/03/19 04:19:40;;;;;;;8.85;5.90;;;;;;;9.11;51.51;100141.39;1738762;81;21664;-77
2021/03/19 04:22:07;;;;;;;8.65;6.03;;;;;;;9.11;51.61;100136.05;1745916;81;21240;-81
2021/03/19 04:24:34;;;;;;;;;;;;;;;9.09;51.62;100138.88;1723091;81;21588;-82
2021/03/19 04:27:02;;;;;;;7.67;6.33;;;;;;;9.11;51.63;100138.22;1760272;81;20548;-81
2021/03/19 04:29:29;;;;;;;10.50;6.47;;;;;;;9.13;51.65;100144.77;1760268;81;22318;-78
2021/03/19 04:31:57;;;;;;;12.82;6.58;;;;;;;9.14;51.68;100145.93;1759295;81;21728;-79
2021/03/19 04:34:24;;;;;;;12.10;7.78;;;;;;;9.15;51.71;100144.92;1759017;81;21198;-77
2021/03/19 04:36:52;;;;;;;10.20;7.65;;;;;;;9.19;51.71;100141.95;1758997;81;21184;-77
2021/03/19 04:39:23;;;;;;;9.95;7.25;;;;;;;9.22;51.67;100148.30;1735023;81;21213;-77
2021/03/19 04:41:53;;;;;;;10.32;7.05;;;;;;;9.24;51.58;100154.34;1759575;81;21178;-77
2021/03/19 04:44:22;;;;;;;9.95;7.40;;;;;;;9.23;51.55;100148.66;1769678;81;21117;-78
2021/03/19 04:46:50;;;;;;;8.30;6.75;;;;;;;9.24;51.57;100147.66;1741265;81;21156;-76
2021/03/19 04:49:18;;;;;;;9.83;7.42;;;;;;;9.24;51.58;100149.00;1764336;81;21133;-78
2021/03/19 04:51:45;;;;;;;9.08;6.90;;;;;;;9.22;51.52;100146.96;1754130;81;21153;-77
2021/03/19 04:54:12;;;;;;;8.68;6.75;;;;;;;9.20;51.83;100151.64;1760616;81;21725;-78
2021/03/19 04:56:40;;;;;;;17.40;9.83;;;;;;;9.20;51.83;100151.64;1766926;81;21205;-75
2021/03/19 04:59:07;;;;;;;10.28;7.95;;;;;;;9.24;51.61;100160.52;1739761;81;21207;-76
2021/03/19 05:01:54;;;;;;;11.03;8.08;;;;;;;9.27;51.64;100158.87;1764762;81;21209;-76
2021/03/19 05:04:22;;;;;;;9.95;8.20;;;;;;;9.31;51.57;100162.05;1769119;81;21192;-80
2021/03/19 05:06:53;;;;;;;11.83;8.45;;;;;;;9.33;51.50;100159.58;1758023;81;21086;-76
2021/03/19 05:09:21;;;;;;;11.08;7.25;;;;;;;9.32;51.44;100162.42;1721689;81;21252;-76
2021/03/19 05:11:50;;;;;;;11.20;8.00;;;;;;;9.34;51.41;100159.08;1769926;80;21476;-75
2021/03/19 05:14:18;;;;;;;12.93;7.72;;;;;;;9.31;51.42;100158.91;1759832;81;21524;-77
2021/03/19 05:16:45;;;;;;;10.85;7.50;;;;;;;9.33;51.40;100160.08;1737143;81;21707;-75
2021/03/19 05:19:14;;;;;;;9.00;7.20;;;;;;;9.32;51.42;100169.94;1725324;81;21368;-76
2021/03/19 05:21:42;;;;;;;10.18;7.40;;;;;;;9.31;51.37;100170.07;1737568;81;21215;-77
2021/03/19 05:24:11;;;;;;;9.65;6.42;;;;;;;9.27;51.31;100168.23;1698170;82;21761;-78
2021/03/19 05:26:40;;;;;;;11.73;7.72;;;;;;;9.25;51.42;100172.05;1751285;81;21294;-78
2021/03/19 05:29:09;;;;;;;10.32;7.70;;;;;;;9.25;51.41;100174.72;1765756;81;21191;-77
2021/03/19 05:31:36;;;;;;;14.73;8.13;;;;;;;9.26;51.45;100179.06;1747183;80;21212;-76
2021/03/19 05:34:03;;;;;;;16.23;8.58;;;;;;;9.28;51.38;100178.42;1708628;81;21754;-78
2021/03/19 05:36:33;;;;;;;12.43;8.50;;;;;;;9.28;51.35;100179.26;1720055;82;21233;-78
2021/03/19 05:39:00;;;;;;;11.97;8.13;;;;;;;9.30;51.44;100179.09;1733847;81;21245;-76
2021/03/19 05:41:28;;;;;;;10.93;7.03;;;;;;;9.31;51.44;100180.77;1721270;82;21225;-76
2021/03/19 05:44:06;;;;;;;13.30;8.45;;;;;;;9.31;51.40;100186.11;1705947;81;21274;-77
2021/03/19 05:46:37;;;;;;;11.00;7.50;;;;;;;9.30;51.34;100187.95;1711093;82;21490;-77
2021/03/19 05:49:13;;;;;;;10.20;7.83;;;;;;;9.28;51.31;100187.78;1763568;81;21153;-79
2021/03/19 05:51:47;;;;;;;13.85;8.08;;;;;;;9.24;51.42;100189.08;1754551;81;21137;-78
2021/03/19 05:54:26;;;;;;;9.98;8.03;;;;;;;9.21;51.53;100186.71;1739008;81;21573;-80
2021/03/19 05:57:17;;;;;;;10.08;8.03;;;;;;;9.25;51.68;100185.41;1744903;82;21167;-77
2021/03/19 05:59:48;;;;;;;9.90;7.78;;;;;;;9.30;51.71;100191.95;1755301;81;21145;-76
2021/03/19 06:02:37;;;;;;;11.38;8.30;;;;;;;9.33;51.71;100194.83;1749132;81;21145;-76
2021/03/19 06:05:22;;;;;;;10.48;8.53;;;;;;;9.35;51.51;100196.33;1759193;80;21149;-78
2021/03/19 06:07:53;;;;;;;10.20;7.92;;;;;;;9.38;51.56;100202.71;1734059;81;21575;-78
2021/03/19 06:10:37;;;;;;;9.23;7.67;;;;;;;9.40;51.52;100198.53;1758639;81;21144;-75
2021/03/19 06:13:13;;;;;;;14.50;8.70;;;;;;;9.42;51.53;100201.91;1728981;80;21180;-77
2021/03/19 06:15:44;;;;;;;10.63;7.47;;;;;;;9.44;51.60;100205.25;1759631;80;21092;-75
2021/03/19 06:18:37;;;;;;;8.48;7.25;;;;;;;9.45;51.58;100204.74;1756971;80;21581;-76
2021/03/19 06:21:13;;;;;;;14.95;9.60;;;;;;;9.45;51.54;100210.09;1747026;81;21141;-77
2021/03/19 06:23:43;;;;;;;11.12;8.85;;;;;;;9.49;51.56;100213.63;1734271;81;21120;-76
2021/03/19 06:26:25;;;;;;;13.22;9.88;;;;;;;9.54;51.50;100214.02;1724462;81;21120;-76
2021/03/19 06:29:23;;;;;;;10.60;8.50;;;;;;;9.56;51.33;100218.70;1718937;81;21748;-75
2021/03/19 06:32:09;;;;;;;13.20;9.28;;;;;;;9.58;51.17;100216.73;1739517;81;21987;-77
2021/03/19 06:35:11;;;;;;;15.18;9.05;;;;;;;9.59;51.16;100224.25;1729778;81;21675;-75
2021/03/19 06:37:46;;;;;;;15.78;9.25;;;;;;;9.61;51.26;100223.08;1741518;80;21104;-79
2021/03/19 06:40:42;;;;;;;12.05;8.98;;;;;;;9.55;51.29;100222.38;1724028;82;21627;-78
2021/03/19 06:43:44;;;;;;;14.03;8.05;;;;;;;9.55;51.39;100226.39;1674843;81;21203;-76
2021/03/19 06:46:44;;;;;;;13.53;9.25;;;;;;;9.50;51.62;100222.02;1739178;80;21137;-75
2021/03/19 06:49:14;;;;;;;11.93;9.68;;;;;;;9.58;51.56;100223.41;1725458;81;21121;-74
2021/03/19 06:52:22;;;;;;;11.50;8.98;;;;;;;9.60;51.52;100220.57;1730395;81;21173;-77
2021/03/19 06:55:00;;;;;;;11.00;8.30;;;;;;;9.63;51.50;100219.77;1730703;81;21175;-75
2021/03/19 06:57:47;;;;;;;12.95;8.58;;;;;;;9.68;51.52;100220.63;1734497;81;21221;-76
2021/03/19 07:00:40;;;;;;;12.00;8.60;;;;;;;9.74;51.55;100221.82;1706846;81;21203;-78
2021/03/19 07:03:52;;;;;;;11.18;8.30;;;;;;;9.77;51.46;100226.36;1729907;81;21148;-76
2021/03/19 07:06:48;;;;;;;10.28;7.40;;;;;;;9.80;51.43;100229.20;1745295;81;21113;-77
2021/03/19 07:09:57;;;;;;;;;;;;;;;9.84;51.34;100228.72;1745724;81;21106;-77
2021/03/19 07:13:06;;;;;;;10.72;8.33;;;;;;;9.90;51.26;100231.25;1750912;81;20235;-76
2021/03/19 07:16:16;;;;;;;10.70;7.08;;;;;;;9.90;51.30;100228.58;1729524;81;21146;-79
2021/03/19 07:19:18;;;;;;;9.53;7.50;;;;;;;9.93;51.17;100230.95;1701733;82;21136;-77
2021/03/19 07:22:27;;;;;;;10.60;8.65;;;;;;;9.98;51.22;100233.98;1725966;81;21639;-76
2021/03/19 07:26:00;;;;;;;9.08;7.85;;;;;;;10.08;51.21;100235.19;1725784;81;21161;-76
2021/03/19 07:29:05;;;;;;;11.40;8.13;;;;;;;10.17;51.31;100228.88;1754335;80;21129;-76
2021/03/19 07:32:26;;;;;;;;;;;;;;;;;;;;;
2021/03/19 07:35:49;;;;;;;12.10;8.05;;;;;;;10.36;50.81;100225.98;1754388;80;21136;-76
2021/03/19 07:39:09;;;;;;;12.07;8.15;;;;;;;10.40;50.60;100227.81;1748668;81;21101;-76
2021/03/19 07:42:16;;;;;;;11.28;7.58;;;;;;;10.46;50.35;100231.20;1646355;81;21665;-77
2021/03/19 07:45:37;;;;;;;11.25;7.87;;;;;;;10.55;50.17;100231.56;1744004;80;21208;-76
2021/03/19 07:49:07;;;;;;;11.78;8.55;;;;;;;10.59;50.14;100230.23;1756022;81;21212;-76
2021/03/19 07:52:46;;;;;;;11.50;7.22;;;;;;;10.62;49.97;100237.92;1706832;81;21205;-77
2021/03/19 07:55:40;;;;;;;9.80;8.03;;;;;;;10.60;49.73;100233.24;1755319;80;21121;-79
2021/03/19 07:58:35;;;;;;;7.87;7.08;;;;;;;10.59;49.77;100236.93;1739823;81;21149;-76
2021/03/19 08:02:00;;;;;;;11.00;7.97;;;;;;;10.62;49.80;100233.91;1725673;81;21152;-76
2021/03/19 08:05:21;;;;;;;14.80;9.00;;;;;;;10.68;49.73;100241.80;1776934;77;23401;-77
2021/03/19 08:08:24;;;;;;;10.10;7.87;;;;;;;10.62;49.50;100241.94;1747757;79;21195;-77
2021/03/19 08:11:31;;;;;;;12.63;8.73;;;;;;;10.58;49.70;100241.09;1781688;78;21639;-77
2021/03/19 08:14:31;;;;;;;10.95;8.20;;;;;;;10.56;49.75;100241.27;1769984;79;21006;-76
2021/03/19 08:17:21;;;;;;;10.68;9.13;;;;;;;10.55;49.85;100253.48;1778350;78;20987;-76
2021/03/19 08:20:17;;;;;;;11.20;9.08;;;;;;;10.53;49.85;100250.95;1796630;77;22294;-75
2021/03/19 08:23:11;;;;;;;17.32;9.25;;;;;;;10.52;49.85;100253.80;1793610;77;21124;-75
2021/03/19 08:25:43;;;;;;;13.45;9.00;;;;;;;10.47;49.81;100260.98;1794583;78;21159;-76
2021/03/19 08:28:19;;;;;;;10.38;7.47;;;;;;;10.47;49.82;100258.31;1781489;78;21200;-76
2021/03/19 08:31:19;;;;;;;13.98;8.85;;;;;;;10.44;49.84;100262.64;1774829;78;21133;-76
2021/03/19 08:34:12;;;;;;;11.40;7.72;;;;;;;10.44;49.88;100258.63;1775355;78;21148;-75
2021/03/19 08:36:49;;;;;;;14.20;8.40;;;;;;;10.40;49.98;100256.80;1782809;78;21149;-76
2021/03/19 08:39:39;;;;;;;12.70;9.65;;;;;;;10.37;50.11;100256.27;1773547;79;21106;-76
2021/03/19 08:42:21;;;;;;;18.98;10.75;;;;;;;10.35;50.17;100262.27;1794632;77;21170;-76
2021/03/19 08:44:48;;;;;;;14.07;9.95;;;;;;;10.33;50.28;100258.93;1759902;79;21094;-76
2021/03/19 08:47:29;;;;;;;13.30;9.23;;;;;;;10.35;50.33;100260.93;1770483;79;21620;-78
2021/03/19 08:50:02;;;;;;;13.22;8.75;;;;;;;10.34;50.42;100259.27;1769369;79;21109;-76
2021/03/19 08:52:37;;;;;;;11.50;8.80;;;;;;;10.37;50.51;100261.63;1767563;79;21133;-75
2021/03/19 08:55:21;;;;;;;12.20;8.33;;;;;;;10.37;50.41;100255.77;1736387;79;21151;-76
2021/03/19 08:57:52;;;;;;;10.13;8.13;;;;;;;10.39;50.52;100261.78;1768565;79;21133;-77
2021/03/19 09:00:32;;;;;;;9.83;7.67;;;;;;;10.36;50.72;100261.30;1768999;79;21103;-76
2021/03/19 09:03:05;;;;;;;9.10;7.75;;;;;;;10.41;50.75;100262.98;1798135;78;21565;-76
2021/03/19 09:05:37;;;;;;;13.08;7.80;;;;;;;10.45;50.67;100268.36;1794533;78;21144;-75
2021/03/19 09:08:28;;;;;;;11.08;7.95;;;;;;;10.48;50.62;100265.33;1797931;77;21121;-76
2021/03/19 09:11:00;;;;;;;9.60;7.92;;;;;;;10.51;50.57;100266.36;1794005;78;21106;-75
2021/03/19 09:13:28;;;;;;;13.45;7.95;;;;;;;10.54;50.23;100262.03;1801518;78;21133;-75
2021/03/19 09:15:56;;;;;;;10.20;8.05;;;;;;;10.56;50.09;100271.23;1767241;79;21764;-75
2021/03/19 09:18:45;;;;;;;13.83;9.25;;;;;;;10.55;49.98;100266.38;1767403;79;21157;-75
2021/03/19 09:21:31;;;;;;;14.73;9.28;;;;;;;10.58;49.93;100274.56;1769308;79;21149;-75
2021/03/19 09:24:07;;;;;;;12.23;9.03;;;;;;;10.57;49.81;100279.09;1768702;79;21993;-76
2021/03/19 09:26:54;;;;;;;11.63;7.72;;;;;;;10.57;49.62;100279.09;1767911;79;21647;-75
2021/03/19 09:29:33;;;;;;;8.98;6.97;;;;;;;10.56;49.45;100277.92;1764650;79;21137;-78
2021/03/19 09:32:32;;;;;;;11.85;8.28;;;;;;;10.55;49.32;100277.09;1765966;79;21181;-76
2021/03/19 09:35:10;;;;;;;12.10;8.63;;;;;;;10.53;49.24;100276.39;1740631;80;21194;-75
2021/03/19 09:37:45;;;;;;;12.82;7.30;;;;;;;10.50;49.28;100281.27;1771786;79;21927;-75
2021/03/19 09:40:43;;;;;;;10.90;7.67;;;;;;;10.49;49.27;100279.08;1797503;77;21108;-77
2021/03/19 09:43:39;;;;;;;10.65;7.53;;;;;;;10.48;49.25;100285.42;1764954;77;21556;-76
2021/03/19 09:46:27;;;;;;;7.78;6.28;;;;;;;10.48;49.29;100284.58;1792294;77;21137;-76
2021/03/19 09:49:05;;;;;;;8.10;6.70;;;;;;;10.48;49.20;100280.06;1778319;78;21134;-76
2021/03/19 09:51:42;;;;;;;11.00;7.12;;;;;;;10.48;49.13;100280.06;1777586;78;21136;-76
2021/03/19 09:54:30;;;;;;;10.82;7.65;;;;;;;10.53;49.24;100279.58;1766336;79;21102;-77
2021/03/19 09:57:05;;;;;;;12.13;8.38;;;;;;;10.56;49.22;100277.92;1779659;78;21640;-76
2021/03/19 09:59:35;;;;;;;13.72;7.78;;;;;;;10.57;49.23;100281.77;1775682;78;21149;-79
2021/03/19 10:02:23;;;;;;;15.35;10.23;;;;;;;10.60;49.08;100279.28;1776446;78;21192;-75
2021/03/19 10:04:51;;;;;;;17.85;9.93;;;;;;;10.62;48.82;100284.80;1766325;79;21647;-77
2021/03/19 10:07:24;;;;;;;17.62;8.70;;;;;;;10.60;48.59;100281.45;1761511;79;21133;-77
2021/03/19 10:09:54;;;;;;;13.05;8.20;;;;;;;10.59;48.38;100291.00;1769478;79;21664;-76
2021/03/19 10:12:34;;;;;;;12.55;7.60;;;;;;;10.54;48.23;100290.14;1790896;78;21129;-78
2021/03/19 10:15:17;;;;;;;15.55;8.13;;;;;;;10.50;48.11;100289.30;1745438;80;21146;-77
2021/03/19 10:17:56;;;;;;;9.20;7.10;;;;;;;10.44;48.07;100294.77;1800171;77;21148;-75
2021/03/19 10:20:36;;;;;;;11.30;7.60;;;;;;;10.36;48.25;100285.39;1771365;77;21128;-77
2021/03/19 10:23:19;;;;;;;10.53;7.28;;;;;;;10.30;48.33;100292.20;1771766;79;21125;-76
2021/03/19 10:25:48;;;;;;;13.38;7.37;;;;;;;10.24;48.54;100288.84;1767152;79;21031;-77
2021/03/19 10:28:24;;;;;;;15.60;8.05;;;;;;;10.21;48.79;100282.92;1777425;78;21137;-76
2021/03/19 10:31:08;;;;;;;10.20;7.35;;;;;;;10.19;48.69;100286.28;1780168;79;21134;-76
2021/03/19 10:33:52;;;;;;;10.88;7.15;;;;;;;10.16;48.93;100282.91;1780235;78;21663;-76
2021/03/19 10:37:16;;;;;;;8.53;6.22;;;;;;;10.12;49.28;100284.22;1757726;80;22066;-76
2021/03/19 10:50:35;;;;;;;10.23;6.45;;;;;;;10.25;49.17;100281.64;1765704;79;22775;-76
2021/03/19 10:53:09;;;;;;;11.05;7.45;;;;;;;10.22;49.27;100280.58;1748009;80;21196;-76
2021/03/19 10:55:50;;;;;;;15.30;7.92;;;;;;;10.27;49.48;100278.33;1837087;76;22887;-75
2021/03/19 10:58:43;;;;;;;12.35;7.47;;;;;;;10.23;49.70;100276.42;1798606;78;21367;-76
2021/03/19 11:01:39;;;;;;;8.13;7.12;;;;;;;10.25;49.65;100277.63;1840321;75;21193;-76
2021/03/19 11:04:30;;;;;;;11.65;7.20;;;;;;;10.26;49.64;100269.92;1811707;76;21228;-77
2021/03/19 11:07:17;;;;;;;8.93;7.42;;;;;;;10.25;49.68;100273.11;1837097;75;21221;-77
2021/03/19 11:10:17;;;;;;;8.80;6.90;;;;;;;10.28;49.61;100275.48;1840246;76;21206;-75
2021/03/19 11:12:58;;;;;;;11.80;7.42;;;;;;;10.28;49.25;100278.16;1833867;75;21162;-76
2021/03/19 11:15:34;;;;;;;13.70;7.90;;;;;;;10.26;49.38;100280.13;1813951;76;21125;-76
2021/03/19 11:18:33;;;;;;;10.18;6.95;;;;;;;10.25;49.40;100281.64;1816606;76;21122;-78
2021/03/19 11:21:10;;;;;;;10.10;6.53;;;;;;;10.29;49.37;100278.98;1817381;76;21174;-75
2021/03/19 11:24:22;;;;;;;13.08;7.00;;;;;;;10.35;49.15;100281.02;1814632;77;21142;-77
2021/03/19 11:27:13;;;;;;;12.28;8.78;;;;;;;10.36;49.25;100282.71;1820673;77;20978;-76
2021/03/19 11:29:42;;;;;;;9.70;7.90;;;;;;;10.41;49.11;100287.08;1815826;76;21103;-77
2021/03/19 11:32:18;;;;;;;11.20;8.40;;;;;;;10.39;49.02;100282.37;1787178;77;21137;-76
2021/03/19 11:34:50;;;;;;;10.05;7.67;;;;;;;10.37;49.14;100283.05;1815561;76;21551;-77
2021/03/19 11:37:27;;;;;;;12.18;7.67;;;;;;;10.39;49.03;100286.38;1813831;77;21120;-77
2021/03/19 11:40:27;;;;;;;13.72;10.10;;;;;;;10.40;49.02;100284.04;1819310;76;21109;-77
2021/03/19 11:42:59;;;;;;;18.75;12.68;;;;;;;10.28;49.28;100284.84;1804524;77;21587;-77
2021/03/19 11:45:33;;;;;;;16.90;11.35;;;;;;;10.38;48.86;100283.38;1813568;78;20971;-76
2021/03/19 11:48:25;;;;;;;12.63;8.15;;;;;;;10.47;48.93;100278.39;1811361;77;21615;-76
2021/03/19 11:51:12;;;;;;;10.95;7.58;;;;;;;10.38;49.32;100284.21;1805152;78;21626;-77
2021/03/19 11:53:42;;;;;;;71.20;33.88;;;;;;;10.39;49.33;100283.20;1811246;77;21137;-77
2021/03/19 11:56:13;;;;;;;20.12;12.15;;;;;;;10.54;48.96;100279.44;1812468;76;21702;-76
2021/03/19 11:58:40;;;;;;;14.05;8.15;;;;;;;10.36;49.03;100283.55;1792278;78;21121;-77
2021/03/19 12:01:08;;;;;;;11.80;6.90;;;;;;;10.21;49.68;100285.60;1809629;78;21101;-75
2021/03/19 12:03:43;;;;;;;11.78;7.35;;;;;;;10.26;49.57;100287.33;1817587;77;21598;-76
2021/03/19 12:06:12;;;;;;;13.45;8.25;;;;;;;10.29;49.47;100284.34;1813266;78;21111;-77
2021/03/19 12:08:43;;;;;;;13.25;8.05;;;;;;;10.63;48.97;100282.47;1846747;76;21129;-77
2021/03/19 12:11:32;;;;;;;9.78;6.92;;;;;;;10.34;49.71;100287.38;1807962;78;21123;-76
2021/03/19 12:13:59;;;;;;;13.83;7.60;;;;;;;10.68;48.62;100291.87;1804132;77;20948;-77
2021/03/19 12:16:27;;;;;;;16.23;8.65;;;;;;;10.68;48.46;100287.34;1811144;78;21120;-75
2021/03/19 12:18:56;;;;;;;10.23;7.28;;;;;;;10.66;48.36;100287.48;1797859;78;21114;-78
2021/03/19 12:21:24;;;;;;;14.58;7.53;;;;;;;10.72;48.36;100289.17;1818361;78;21137;-76
2021/03/19 12:23:51;;;;;;;10.63;7.50;;;;;;;10.72;48.29;100293.19;1815232;77;21127;-76
2021/03/19 12:26:18;;;;;;;8.88;7.30;;;;;;;10.69;48.34;100295.71;1824145;77;21565;-78
2021/03/19 12:28:46;;;;;;;9.33;7.25;;;;;;;10.49;48.73;100296.97;1796077;78;21149;-76
2021/03/19 12:31:13;;;;;;;10.55;7.00;;;;;;;10.47;48.74;100294.45;1794008;78;21608;-76
2021/03/19 12:33:42;;;;;;;8.73;6.97;;;;;;;10.57;48.57;100295.16;1824777;78;21599;-77
2021/03/19 12:36:10;;;;;;;11.22;7.10;;;;;;;10.58;48.51;100291.50;1817528;77;21215;-75
2021/03/19 12:38:38;;;;;;;11.93;8.03;;;;;;;10.60;48.52;100298.02;1815247;78;21113;-75